Dades meteomassalio
Diari Summary for Marc 2, 2018 Units:  Metric    English   Both
« Previous Day
Next Day »
Diari Semanal Mensual Anual Personalitzat
  Maxima: Minima: Mijana:
Temperatura: -17.8 °C -17.2 °C -12.9 °C
Rosada: -17.8 °C -18.9 °C -16.3 °C
Humitat: Humidity % 52 % 66 %
Velocitat del vent: 0 km/h 0 km/h 17.5 km/h
Racha vent: 0 km/h - -
Vent:- - SW
Pressio: 0 hPa 33673.8 hPa -
Pluja: 33.02 mm    
Historical Graphs
 
 
Tabular Data for Marc 2, 2018
Time Temperature Dew Point Pressure Wind Wind Speed Wind Gust Humidity Rainfall Rate (Hourly) solar Conditions
-17.8 °C -17.8 °C 0 hPa Calm     Humidity % 0 mm SolarRadiationWatts/m^2 W/m2 Conditions
00:03 -11.4 °C -15.9 °C 33673.8 hPa NW 38.8 km/h 38.8 km/h 58 % 0 mm 0.0 W/m2 CLR
00:08 -11.5 °C -16.1 °C 33673.8 hPa WNW 68.6 km/h 68.6 km/h 57 % 0 mm 0.0 W/m2 CLR
00:13 -11.5 °C -16.1 °C 33683.9 hPa NW 54.4 km/h 54.4 km/h 57 % 0 mm 0.0 W/m2 CLR
00:18 -11.4 °C -16.1 °C 33683.9 hPa NW 71.5 km/h 71.5 km/h 56 % 0 mm 0.0 W/m2 CLR
00:23 -11.4 °C -16.2 °C 33694.1 hPa WNW 51.8 km/h 51.8 km/h 56 % 0 mm 0.0 W/m2 CLR
00:28 -11.4 °C -16.2 °C 33694.1 hPa NW 62.1 km/h 62.1 km/h 56 % 0 mm 0.0 W/m2 CLR
00:33 -11.5 °C -16.2 °C 33694.1 hPa NW 56.6 km/h 56.6 km/h 56 % 0 mm 0.0 W/m2 CLR
00:38 -11.6 °C -16.2 °C 33707.6 hPa NNW 56.6 km/h 56.6 km/h 57 % 0 mm 0.0 W/m2 CLR
00:43 -11.6 °C -16.3 °C 33707.6 hPa NW 50.7 km/h 50.7 km/h 56 % 0 mm 0.0 W/m2 CLR
00:48 -11.6 °C -16.3 °C 33707.6 hPa NW 62.6 km/h 62.6 km/h 56 % 0 mm 0.0 W/m2 CLR
00:53 -11.6 °C -16.5 °C 33717.8 hPa NW 65.5 km/h 65.5 km/h 55 % 0 mm 0.0 W/m2 CLR
00:59 -11.8 °C -16.6 °C 33731.3 hPa NW 44.7 km/h 44.7 km/h 55 % 0 mm 0.0 W/m2 CLR
01:03 -11.8 °C -16.5 °C 33731.3 hPa NW 59.5 km/h 59.5 km/h 56 % 0 mm 0.0 W/m2 CLR
01:09 -11.8 °C -16.6 °C 33731.3 hPa NW 50.7 km/h 50.7 km/h 55 % 0 mm 0.0 W/m2 CLR
01:14 -11.8 °C -16.6 °C 33731.3 hPa WNW 68.6 km/h 68.6 km/h 55 % 0 mm 0.0 W/m2 CLR
01:19 -11.8 °C -16.6 °C 33741.5 hPa NW 65.5 km/h 65.5 km/h 55 % 0 mm 0.0 W/m2 CLR
01:24 -11.8 °C -16.6 °C 33741.5 hPa NW 59.5 km/h 59.5 km/h 55 % 0 mm 0.0 W/m2 CLR
01:29 -11.9 °C -16.6 °C 33751.6 hPa NNW 54.4 km/h 54.4 km/h 56 % 0 mm 0.0 W/m2 CLR
01:34 -12 °C -16.6 °C 33765.2 hPa NNW 50.7 km/h 50.7 km/h 57 % 0 mm 0.0 W/m2 CLR
01:39 -12.1 °C -16.6 °C 33765.2 hPa NNW 74.5 km/h 74.5 km/h 57 % 0 mm 0.0 W/m2 CLR
01:44 -12.1 °C -16.6 °C 33765.2 hPa NNW 67.3 km/h 67.3 km/h 57 % 0 mm 0.0 W/m2 CLR
01:49 -12.1 °C -16.7 °C 33765.2 hPa NW 62.6 km/h 62.6 km/h 56 % 0 mm 0.0 W/m2 CLR
01:54 -12.1 °C -16.5 °C 33765.2 hPa NNW 47.6 km/h 47.6 km/h 58 % 0 mm 0.0 W/m2 CLR
01:59 -12.2 °C -16.6 °C 33775.4 hPa NNW 44.7 km/h 44.7 km/h 58 % 0 mm 0.0 W/m2 CLR
02:04 -12.2 °C -16.6 °C 33775.4 hPa NNW 51.8 km/h 51.8 km/h 58 % 0 mm 0.0 W/m2 CLR
02:09 -12.3 °C -16.6 °C 33775.4 hPa NW 38.8 km/h 38.8 km/h 58 % 0 mm 0.0 W/m2 CLR
02:14 -12.3 °C -16.6 °C 33775.4 hPa North 50.7 km/h 50.7 km/h 59 % 0 mm 0.0 W/m2 CLR
02:19 -12.3 °C -16.7 °C 33775.4 hPa North 57 km/h 57 km/h 58 % 0 mm 0.0 W/m2 CLR
02:24 -12.4 °C -16.6 °C 33775.4 hPa NW 50.7 km/h 50.7 km/h 59 % 0 mm 0.0 W/m2 CLR
02:29 -12.4 °C -16.6 °C 33788.9 hPa NW 59.5 km/h 59.5 km/h 59 % 0 mm 0.0 W/m2 CLR
02:34 -12.5 °C -16.7 °C 33788.9 hPa NNW 47.6 km/h 47.6 km/h 59 % 0 mm 0.0 W/m2 CLR
02:39 -12.5 °C -16.7 °C 33799.1 hPa NNW 38.8 km/h 38.8 km/h 59 % 0 mm 0.0 W/m2 CLR
02:44 -12.6 °C -16.7 °C 33799.1 hPa NNW 53.6 km/h 53.6 km/h 60 % 0 mm 0.0 W/m2 CLR
02:49 -12.6 °C -16.7 °C 33809.2 hPa NNW 41.7 km/h 41.7 km/h 60 % 0 mm 0.0 W/m2 CLR
02:54 -12.6 °C -16.7 °C 33809.2 hPa WNW 35.7 km/h 35.7 km/h 60 % 0 mm 0.0 W/m2 CLR
02:59 -12.6 °C -16.7 °C 33809.2 hPa NW 47.6 km/h 47.6 km/h 60 % 0 mm 0.0 W/m2 CLR
03:04 -12.6 °C -16.7 °C 33809.2 hPa NW 50.7 km/h 50.7 km/h 60 % 0 mm 0.0 W/m2 CLR
03:09 -12.7 °C -16.8 °C 33809.2 hPa NW 53.6 km/h 53.6 km/h 60 % 0 mm 0.0 W/m2 CLR
03:14 -12.7 °C -16.8 °C 33809.2 hPa NW 44.7 km/h 44.7 km/h 60 % 0 mm 0.0 W/m2 CLR
03:19 -12.7 °C -16.7 °C 33809.2 hPa NW 38.8 km/h 38.8 km/h 61 % 0 mm 0.0 W/m2 CLR
03:24 -12.7 °C -16.7 °C 33822.8 hPa NW 41.7 km/h 41.7 km/h 61 % 0 mm 0.0 W/m2 CLR
03:29 -12.8 °C -16.6 °C 33822.8 hPa NW 46.7 km/h 46.7 km/h 62 % 0 mm 0.0 W/m2 CLR
03:34 -12.8 °C -16.7 °C 33822.8 hPa NW 41.7 km/h 41.7 km/h 62 % 0 mm 0.0 W/m2 CLR
03:39 -12.9 °C -16.6 °C 33822.8 hPa NW 36.2 km/h 36.2 km/h 63 % 0 mm 0.0 W/m2 CLR
03:44 -13 °C -16.6 °C 33822.8 hPa NW 41.7 km/h 41.7 km/h 64 % 0 mm 0.0 W/m2 CLR
03:49 -13.1 °C -16.7 °C 33822.8 hPa NW 26.9 km/h 26.9 km/h 64 % 0 mm 0.0 W/m2 CLR
03:54 -13.2 °C -16.6 °C 33822.8 hPa NW 35.7 km/h 35.7 km/h 65 % 0 mm 0.0 W/m2 CLR
03:59 -13.2 °C -16.7 °C 33822.8 hPa NNW 29.8 km/h 29.8 km/h 65 % 0 mm 0.0 W/m2 CLR
04:04 -13.2 °C -16.7 °C 33822.8 hPa NNW 32.8 km/h 32.8 km/h 65 % 0 mm 0.0 W/m2 CLR
04:09 -13.3 °C -16.7 °C 33822.8 hPa NW 29.8 km/h 29.8 km/h 65 % 0 mm 0.0 W/m2 CLR
04:14 -13.2 °C -16.8 °C 33832.9 hPa NW 32.8 km/h 32.8 km/h 64 % 0 mm 0.0 W/m2 CLR
04:19 -13.3 °C -16.8 °C 33832.9 hPa NNW 23.8 km/h 23.8 km/h 64 % 0 mm 0.0 W/m2 CLR
04:24 -13.3 °C -16.8 °C 33843.1 hPa North 15 km/h 15 km/h 64 % 0 mm 0.0 W/m2 CLR
04:29 -13.3 °C -16.9 °C 33843.1 hPa NW 17.9 km/h 17.9 km/h 64 % 0 mm 0.0 W/m2 CLR
04:34 -13.3 °C -17 °C 33843.1 hPa NNW 17.9 km/h 17.9 km/h 63 % 0 mm 0.0 W/m2 CLR
04:39 -13.4 °C -17.1 °C 33856.6 hPa NW 20.9 km/h 20.9 km/h 63 % 0 mm 0.0 W/m2 CLR
04:44 -13.4 °C -17.1 °C 33856.6 hPa NNW 15 km/h 15 km/h 63 % 0 mm 0.0 W/m2 CLR
04:49 -13.5 °C -17.2 °C 33866.8 hPa Calm     63 % 0 mm 0.0 W/m2 CLR
04:54 -13.5 °C -17.2 °C 33866.8 hPa Calm     63 % 0 mm 0.0 W/m2 CLR
04:59 -13.6 °C -17.2 °C 33866.8 hPa Calm     63 % 0 mm 0.0 W/m2 CLR
05:04 -13.6 °C -17.2 °C 33880.3 hPa Calm     64 % 0 mm 0.0 W/m2 CLR
05:09 -13.7 °C -17.1 °C 33866.8 hPa Calm     65 % 0 mm 0.0 W/m2 CLR
05:14 -13.8 °C -17.3 °C 33866.8 hPa Calm     65 % 0 mm 0.0 W/m2 CLR
05:19 -14 °C -17.3 °C 33880.3 hPa Calm     66 % 0 mm 0.0 W/m2 CLR
05:24 -14.2 °C -17.2 °C 33880.3 hPa Calm     68 % 0 mm 0.0 W/m2 CLR
05:29 -14.3 °C -17.2 °C 33880.3 hPa Calm     69 % 0 mm 0.0 W/m2 CLR
05:34 -14.4 °C -17.2 °C 33880.3 hPa North 20.8 km/h 20.8 km/h 70 % 0 mm 0.0 W/m2 CLR
05:39 -14.3 °C -17.3 °C 33890.5 hPa NNW 11.9 km/h 11.9 km/h 69 % 0 mm 0.0 W/m2 CLR
05:44 -14.4 °C -17.3 °C 33890.5 hPa North 15 km/h 15 km/h 69 % 0 mm 0.0 W/m2 CLR
05:49 -14.4 °C -17.3 °C 33900.6 hPa NNE 18.2 km/h 18.2 km/h 69 % 0 mm 0.0 W/m2 CLR
05:54 -14.3 °C -17.3 °C 33900.6 hPa NNE 20.9 km/h 20.9 km/h 69 % 0 mm 0.0 W/m2 CLR
05:59 -14.3 °C -17.3 °C 33900.6 hPa Calm     69 % 0 mm 0.0 W/m2 CLR
06:04 -14.3 °C -17.3 °C 33900.6 hPa North 9 km/h   69 % 0 mm 0.0 W/m2 CLR
06:09 -14.3 °C -17.3 °C 33914.2 hPa North 11.9 km/h 11.9 km/h 69 % 0 mm 0.0 W/m2 CLR
06:14 -14.3 °C -17.4 °C 33914.2 hPa Calm     68 % 0 mm 0.0 W/m2 CLR
06:19 -14.4 °C -17.3 °C 33914.2 hPa Calm     69 % 0 mm 0.0 W/m2 CLR
06:24 -14.6 °C -17.4 °C 33914.2 hPa Calm     69 % 0 mm 0.0 W/m2 CLR
06:29 -14.7 °C -17.5 °C 33914.2 hPa Calm     70 % 0 mm 0.0 W/m2 CLR
06:34 -14.9 °C -17.5 °C 33924.3 hPa Calm     72 % 0 mm 0.0 W/m2 CLR
06:39 -15.1 °C -17.5 °C 33924.3 hPa Calm     73 % 0 mm 0.0 W/m2 CLR
06:44 -15.4 °C -17.7 °C 33924.3 hPa Calm     74 % 0 mm 0.0 W/m2 CLR
06:49 -15.5 °C -17.6 °C 33924.3 hPa Calm     77 % 0 mm 0.0 W/m2 CLR
06:54 -15.3 °C -17.6 °C 33937.9 hPa Calm     75 % 0 mm 0.0 W/m2 CLR
06:59 -15.5 °C -17.7 °C 33937.9 hPa WNW 12.9 km/h 12.9 km/h 76 % 0 mm 0.0 W/m2 CLR
07:04 -15.7 °C -17.7 °C 33948 hPa Calm     77 % 0 mm 0.0 W/m2 CLR
07:09 -15.7 °C -17.7 °C 33948 hPa Calm     78 % 0 mm 0.0 W/m2 CLR
07:14 -15.7 °C -17.7 °C 33958.2 hPa Calm     78 % 0 mm 0.0 W/m2 CLR
07:19 -15.9 °C -17.8 °C 33958.2 hPa Calm     78 % 0 mm 0.0 W/m2 CLR
07:24 -16.1 °C -17.9 °C 33958.2 hPa Calm     79 % 0 mm 0.0 W/m2 OVC
07:29 -16.1 °C -17.8 °C 33958.2 hPa Calm     80 % 0 mm 5.0 W/m2 OVC
07:34 -16.2 °C -17.9 °C 33958.2 hPa WNW 11.9 km/h 11.9 km/h 80 % 0 mm 7.0 W/m2 OVC
07:39 -16.3 °C -17.9 °C 33958.2 hPa WNW 17.9 km/h 17.9 km/h 81 % 0 mm 9.0 W/m2 BKN
07:44 -17.2 °C -18.7 °C 33958.2 hPa Calm     82 % 0 mm 11.0 W/m2 BKN
07:49 -17.2 °C -18.8 °C 33971.7 hPa Calm     81 % 0 mm 12.0 W/m2 BKN
07:54 -17.2 °C -18.8 °C 33981.9 hPa Calm     81 % 0 mm 16.0 W/m2 BKN
07:59 -17.2 °C -18.8 °C 33981.9 hPa Calm     81 % 0 mm 18.0 W/m2 BKN
08:05 -17.2 °C -18.8 °C 33981.9 hPa Calm     81 % 0 mm 25.0 W/m2 BKN
08:10 -17.2 °C -18.8 °C 33981.9 hPa Calm     81 % 0 mm 35.0 W/m2 BKN
08:15 -17.2 °C -18.7 °C 33971.7 hPa Calm     82 % 0 mm 44.0 W/m2 BKN
08:20 -17.2 °C -18.7 °C 33971.7 hPa Calm     82 % 0 mm 63.0 W/m2 SCT
08:25 -16.8 °C -18.4 °C 33971.7 hPa Calm     81 % 0 mm 76.0 W/m2 FEW
08:30 -17.2 °C -18.8 °C 33971.7 hPa Calm     80 % 0 mm 95.0 W/m2 CLR
08:35 -17.2 °C -18.9 °C 33981.9 hPa Calm     79 % 0 mm 116.0 W/m2 CLR
08:40 -17.2 °C -18.8 °C 33981.9 hPa Calm     80 % 0 mm 134.0 W/m2 CLR
08:45 -16.8 °C -18.6 °C 33971.7 hPa Calm     80 % 0 mm 153.0 W/m2 CLR
08:50 -16.8 °C -18.7 °C 33971.7 hPa Calm     79 % 0 mm 79.0 W/m2 CLR
08:55 -16.6 °C -18.4 °C 33981.9 hPa Calm     79 % 0 mm 190.0 W/m2 CLR
09:00 -16.6 °C -18.3 °C 33992.1 hPa Calm     80 % 0 mm 211.0 W/m2 CLR
09:05 -16.2 °C -18.2 °C 34005.6 hPa Calm     78 % 0 mm 227.0 W/m2 CLR
09:10 -15.6 °C -18.1 °C 34005.6 hPa North 15 km/h 15 km/h 73 % 0 mm 246.0 W/m2 CLR
09:15 -15.6 °C -18.6 °C 34005.6 hPa North 23.3 km/h 23.3 km/h 68 % 0 mm 267.0 W/m2 CLR
09:20 -15.3 °C -18.5 °C 34015.8 hPa NW 29.8 km/h 29.8 km/h 66 % 0 mm 253.0 W/m2 CLR
09:25 -14.4 °C -18 °C 34015.8 hPa NNW 20.9 km/h 20.9 km/h 63 % 0 mm 269.0 W/m2 CLR
09:30 -14.1 °C -17.7 °C 34015.8 hPa WNW 25.9 km/h 25.9 km/h 63 % 0 mm 60.0 W/m2 CLR
09:35 -13.8 °C -17.6 °C 34015.8 hPa NNW 20.9 km/h 20.9 km/h 62 % 0 mm 39.0 W/m2 FEW
09:40 -14.1 °C -17.6 °C 34005.6 hPa North 9 km/h 9 km/h 64 % 0 mm 345.0 W/m2 SCT
09:45 -13.8 °C -17.4 °C 34005.6 hPa NNE 20.9 km/h 20.9 km/h 63 % 0 mm 359.0 W/m2 FEW
09:50 -13.4 °C -17 °C 34005.6 hPa Calm     64 % 0 mm 373.0 W/m2 CLR
09:55 -13.4 °C -17.1 °C 34005.6 hPa Calm     63 % 0 mm 387.0 W/m2 CLR
10:00 -13.2 °C -17.1 °C 34005.6 hPa NNW 15 km/h 15 km/h 61 % 0 mm 404.0 W/m2 CLR
10:05 -13.2 °C -17.3 °C 33992.1 hPa Calm     59 % 0 mm 420.0 W/m2 CLR
10:10 -13.2 °C -17.2 °C 33992.1 hPa ENE 20.9 km/h 20.9 km/h 60 % 0 mm 436.0 W/m2 CLR
10:15 -12.8 °C -17.2 °C 33992.1 hPa NE 11.9 km/h 11.9 km/h 58 % 0 mm 450.0 W/m2 CLR
10:20 -12.8 °C -17.1 °C 33992.1 hPa Calm     59 % 0 mm 471.0 W/m2 CLR
10:25 -12.8 °C -17.4 °C 33992.1 hPa ENE 23.8 km/h 23.8 km/h 56 % 0 mm 480.0 W/m2 CLR
10:30 -12.6 °C -16.9 °C 33992.1 hPa Calm     58 % 0 mm 540.0 W/m2 CLR
10:35 -12.6 °C -17.2 °C 33992.1 hPa Calm     56 % 0 mm 417.0 W/m2 CLR
10:40 -12.2 °C -17 °C 34005.6 hPa Calm     55 % 0 mm 406.0 W/m2 CLR
10:45 -12.2 °C -16.9 °C 34005.6 hPa Calm     56 % 0 mm 309.0 W/m2 CLR
10:50 -12.2 °C -16.9 °C 34005.6 hPa Calm     56 % 0 mm 350.0 W/m2 CLR
10:55 -12.2 °C -16.9 °C 34005.6 hPa Calm     56 % 0 mm 399.0 W/m2 CLR
11:00 -12.2 °C -17 °C 34005.6 hPa Calm     55 % 0 mm 360.0 W/m2 CLR
11:05 -12.2 °C -17.2 °C 34005.6 hPa Calm     54 % 0 mm 345.0 W/m2 CLR
11:10 -11.9 °C -16.7 °C 34005.6 hPa Calm     55 % 0 mm 352.0 W/m2 CLR
11:15 -11.9 °C -16.9 °C 34005.6 hPa Calm     54 % 0 mm 288.0 W/m2 CLR
11:20 -12.2 °C -17 °C 33992.1 hPa Calm     55 % 0 mm 197.0 W/m2 CLR
11:25 -12.2 °C -17 °C 33992.1 hPa Calm     55 % 0 mm 139.0 W/m2 CLR
11:30 -12.2 °C -17 °C 33992.1 hPa Calm     55 % 0 mm 650.0 W/m2 CLR
11:35 -11.6 °C -16.4 °C 33992.1 hPa SSE 9 km/h 9 km/h 55 % 0 mm 645.0 W/m2 CLR
11:40 -11.6 °C -16.7 °C 33992.1 hPa SE 3.1 km/h   53 % 0 mm 596.0 W/m2 CLR
11:45 -11.6 °C -16.7 °C 34005.6 hPa SE 26.9 km/h 26.9 km/h 53 % 0 mm 446.0 W/m2 CLR
11:50 -11.3 °C -16.3 °C 34005.6 hPa SSE 11.9 km/h 11.9 km/h 54 % 0 mm 715.0 W/m2 CLR
11:55 -11.3 °C -16.4 °C 34005.6 hPa ESE 3.1 km/h   53 % 0 mm 622.0 W/m2 CLR
12:00 -11.6 °C -16.7 °C 33992.1 hPa ESE 6 km/h 6 km/h 53 % 0 mm 260.0 W/m2 CLR
12:05 -11.6 °C -16.7 °C 33992.1 hPa East 23.3 km/h 23.3 km/h 53 % 0 mm 668.0 W/m2 CLR
12:10 -11.6 °C -16.6 °C 33992.1 hPa SE 9 km/h 9 km/h 54 % 0 mm 230.0 W/m2 CLR
12:15 -11.6 °C -16.6 °C 33992.1 hPa SE 9 km/h 9 km/h 54 % 0 mm 192.0 W/m2 CLR
12:20 -11.9 °C -17 °C 33992.1 hPa ESE 10.3 km/h 10.3 km/h 53 % 0 mm 146.0 W/m2 CLR
12:25 -11.9 °C -16.9 °C 33992.1 hPa SSE 23.8 km/h 23.8 km/h 54 % 0 mm 160.0 W/m2 CLR
12:30 -11.9 °C -17 °C 33992.1 hPa East 6 km/h 6 km/h 53 % 0 mm 167.0 W/m2 CLR
12:35 -11.9 °C -16.9 °C 33992.1 hPa ESE 3.1 km/h 3.1 km/h 54 % 0 mm 155.0 W/m2 CLR
12:40 -11.9 °C -16.9 °C 33992.1 hPa East 6 km/h 6 km/h 54 % 0 mm 125.0 W/m2 CLR
12:45 -11.9 °C -16.9 °C 34005.6 hPa SE 15 km/h 15 km/h 54 % 0 mm 111.0 W/m2 CLR
12:50 -11.9 °C -16.7 °C 33992.1 hPa SE 6 km/h 6 km/h 55 % 0 mm 125.0 W/m2 CLR
12:55 -11.9 °C -16.7 °C 33992.1 hPa SSE 9 km/h 9 km/h 55 % 0 mm 155.0 W/m2 CLR
13:00 -11.9 °C -16.6 °C 33992.1 hPa SSE 9 km/h 9 km/h 56 % 0 mm 185.0 W/m2 CLR
13:06 -11.6 °C -16.2 °C 33992.1 hPa SE 9 km/h 9 km/h 57 % 0 mm 146.0 W/m2 CLR
13:11 -11.6 °C -16.3 °C 33992.1 hPa ESE 32.8 km/h 32.8 km/h 56 % 0 mm 169.0 W/m2 CLR
13:16 -11.9 °C -16.7 °C 33992.1 hPa SE 26.9 km/h 26.9 km/h 55 % 0 mm 155.0 W/m2 CLR
13:21 -11.6 °C -16.3 °C 33981.9 hPa ESE 29.8 km/h 29.8 km/h 56 % 0 mm 225.0 W/m2 CLR
13:26 -11.6 °C -16.3 °C 33981.9 hPa SE 26.9 km/h 26.9 km/h 56 % 0 mm 279.0 W/m2 CLR
13:31 -11.6 °C -16.3 °C 33981.9 hPa SSE 20.9 km/h 20.9 km/h 56 % 0 mm 318.0 W/m2 CLR
13:36 -11.6 °C -16.3 °C 33971.7 hPa SE 23.3 km/h 23.3 km/h 56 % 0 mm 195.0 W/m2 CLR
13:41 -11.6 °C -16.3 °C 33958.2 hPa SE 23.8 km/h 23.8 km/h 56 % 0 mm 178.0 W/m2 CLR
13:46 -11.6 °C -16.4 °C 33958.2 hPa SE 32.8 km/h 32.8 km/h 55 % 0 mm 197.0 W/m2 CLR
13:51 -11.3 °C -16.3 °C 33958.2 hPa SSE 29.8 km/h 29.8 km/h 54 % 0 mm 236.0 W/m2 CLR
13:56 -11.3 °C -16.2 °C 33958.2 hPa SE 23.8 km/h 23.8 km/h 55 % 0 mm 229.0 W/m2 CLR
14:01 -11.3 °C -16.2 °C 33958.2 hPa South 20.8 km/h 20.8 km/h 55 % 0 mm 241.0 W/m2 CLR
14:06 -11.3 °C -16.3 °C 33958.2 hPa SSE 29.8 km/h 29.8 km/h 54 % 0 mm 297.0 W/m2 CLR
14:11 -11 °C -16.2 °C 33958.2 hPa SSW 32.8 km/h 32.8 km/h 53 % 0 mm 214.0 W/m2 CLR
14:16 -11 °C -16 °C 33958.2 hPa SSW 32.8 km/h 32.8 km/h 54 % 0 mm 294.0 W/m2 CLR
14:21 -11 °C -16.3 °C 33948 hPa South 44.7 km/h 44.7 km/h 52 % 0 mm 323.0 W/m2 CLR
14:26 -10.7 °C -16 °C 33948 hPa SSE 41.7 km/h 41.7 km/h 52 % 0 mm 302.0 W/m2 CLR
14:31 -11 °C -16.2 °C 33948 hPa SSE 32.8 km/h 32.8 km/h 53 % 0 mm 262.0 W/m2 CLR
14:36 -11 °C -16 °C 33948 hPa SSE 32.8 km/h 32.8 km/h 54 % 0 mm 260.0 W/m2 CLR
14:41 -10.7 °C -15.9 °C 33937.9 hPa South 41.7 km/h 41.7 km/h 53 % 0 mm 413.0 W/m2 CLR
14:46 -10.7 °C -15.7 °C 33924.3 hPa SE 15 km/h 15 km/h 54 % 0 mm 330.0 W/m2 CLR
14:51 -10.7 °C -15.9 °C 33937.9 hPa South 31.1 km/h 31.1 km/h 53 % 0 mm 281.0 W/m2 CLR
14:56 -10.7 °C -15.9 °C 33937.9 hPa South 47.6 km/h 47.6 km/h 53 % 0 mm 272.0 W/m2 CLR
15:01 -10.7 °C -16 °C 33924.3 hPa SSE 35.7 km/h 35.7 km/h 52 % 0 mm 287.0 W/m2 CLR
15:06 -10.7 °C -15.9 °C 33924.3 hPa South 38.8 km/h 38.8 km/h 53 % 0 mm 213.0 W/m2 CLR
15:11 -11 °C -16 °C 33924.3 hPa SSW 26.9 km/h 26.9 km/h 54 % 0 mm 155.0 W/m2 CLR
15:16 -11 °C -15.9 °C 33924.3 hPa SSW 26.9 km/h 26.9 km/h 55 % 0 mm 165.0 W/m2 CLR
15:21 -11.3 °C -15.9 °C 33924.3 hPa South 44.7 km/h 44.7 km/h 57 % 0 mm 146.0 W/m2 CLR
15:26 -11.3 °C -15.6 °C 33924.3 hPa SSE 20.9 km/h 20.9 km/h 59 % 0 mm 135.0 W/m2 CLR
15:31 -11.3 °C -15.4 °C 33924.3 hPa SSW 29.8 km/h 29.8 km/h 60 % 0 mm 127.0 W/m2 CLR
15:36 -11.3 °C -15.4 °C 33924.3 hPa South 32.8 km/h 32.8 km/h 60 % 0 mm 132.0 W/m2 CLR
15:41 -11.3 °C -15.4 °C 33914.2 hPa South 29.8 km/h 29.8 km/h 60 % 0 mm 137.0 W/m2 CLR
15:46 -11.3 °C -15.4 °C 33914.2 hPa SSE 29.8 km/h 29.8 km/h 60 % 0 mm 111.0 W/m2 CLR
15:51 -11.3 °C -15.3 °C 33914.2 hPa South 32.8 km/h 32.8 km/h 61 % 0 mm 107.0 W/m2 CLR
15:56 -11.6 °C -15.4 °C 33914.2 hPa SSW 15.6 km/h 15.6 km/h 63 % 0 mm 113.0 W/m2 CLR
16:01 -11.6 °C -15.2 °C 33914.2 hPa SSW 15.6 km/h 15.6 km/h 64 % 0 mm 107.0 W/m2 CLR
16:06 -11.6 °C -15.1 °C 33914.2 hPa SSW 9 km/h 9 km/h 65 % 0 mm 105.0 W/m2 CLR
16:11 -11.6 °C -14.9 °C 33900.6 hPa South 20.8 km/h 20.8 km/h 67 % 0 mm 86.0 W/m2 CLR
16:16 -11.6 °C -14.8 °C 33890.5 hPa South 20.9 km/h 20.9 km/h 68 % 0 mm 232.0 W/m2 CLR
16:21 -11.6 °C -14.6 °C 33890.5 hPa South 17.9 km/h 17.9 km/h 70 % 0 mm 255.0 W/m2 CLR
16:26 -11.6 °C -14.2 °C 33890.5 hPa SSE 6 km/h 6 km/h 73 % 0 mm 188.0 W/m2 CLR
16:31 -11.6 °C -14.3 °C 33880.3 hPa SSE 9 km/h 9 km/h 72 % 0 mm 165.0 W/m2 CLR
16:36 -11.6 °C -14.3 °C 33880.3 hPa SSE 17.9 km/h 17.9 km/h 72 % 0 mm 165.0 W/m2 CLR
16:41 -11.6 °C -14.4 °C 33866.8 hPa South 11.9 km/h 11.9 km/h 71 % 0 mm 190.0 W/m2 CLR
16:46 -11.6 °C -14.3 °C 33866.8 hPa South 12.9 km/h 12.9 km/h 72 % 0 mm 207.0 W/m2 CLR
16:51 -11.3 °C -14 °C 33856.6 hPa South 15 km/h 15 km/h 72 % 0 mm 211.0 W/m2 CLR
16:56 -11.3 °C -14.1 °C 33843.1 hPa South 9 km/h 9 km/h 71 % 0 mm 396.0 W/m2 CLR
17:01 -11 °C -13.9 °C 33843.1 hPa SSE 23.8 km/h 23.8 km/h 70 % 0 mm 197.0 W/m2 CLR
17:06 -11.3 °C -14.2 °C 33843.1 hPa SSE 6 km/h 6 km/h 70 % 0 mm 323.0 W/m2 CLR
17:11 -11 °C -13.9 °C 33832.9 hPa SSE 12.9 km/h 12.9 km/h 70 % 0 mm 290.0 W/m2 CLR
17:16 -11 °C -14.1 °C 33843.1 hPa SSE 20.9 km/h 20.9 km/h 69 % 0 mm 248.0 W/m2 CLR
17:19 -11 °C -14.1 °C 33843.1 hPa SSE 11.9 km/h 11.9 km/h 69 % 0 mm 315.0 W/m2 CLR
17:21 -11 °C -14.1 °C 33843.1 hPa SSE 11.9 km/h 11.9 km/h 69 % 0 mm 315.0 W/m2 CLR
17:26 -11 °C -14.1 °C 33843.1 hPa SSE 11.9 km/h 11.9 km/h 69 % 0 mm 315.0 W/m2 CLR
17:37 -11 °C -14.1 °C 33843.1 hPa SE 11.9 km/h 11.9 km/h 69 % 0 mm 278.0 W/m2 CLR
17:42 -11.3 °C -14.2 °C 33843.1 hPa South 10.3 km/h 10.3 km/h 70 % 0 mm 109.0 W/m2 CLR
17:47 -11.3 °C -14.3 °C 33843.1 hPa South 23.8 km/h 23.8 km/h 69 % 0 mm 211.0 W/m2 CLR
17:52 -11 °C -14.6 °C 33843.1 hPa SSW 31.1 km/h 31.1 km/h 65 % 0 mm 91.0 W/m2 CLR
17:57 -11 °C -14.8 °C 33832.9 hPa SW 29.8 km/h 29.8 km/h 63 % 0 mm 127.0 W/m2 CLR
18:02 -10.7 °C -14.4 °C 33832.9 hPa SW 23.8 km/h 23.8 km/h 64 % 0 mm 60.0 W/m2 SCT
18:07 -11 °C -14.7 °C 33832.9 hPa SSW 20.9 km/h 20.9 km/h 64 % 0 mm 72.0 W/m2 FEW
18:12 -11 °C -14.7 °C 33832.9 hPa SW 23.8 km/h 23.8 km/h 64 % 0 mm 49.0 W/m2 SCT
18:17 -11 °C -14.6 °C 33832.9 hPa SW 35.7 km/h 35.7 km/h 65 % 0 mm 35.0 W/m2 BKN
18:22 -11 °C -14.6 °C 33832.9 hPa SW 33.6 km/h 33.6 km/h 65 % 0 mm 19.0 W/m2 BKN
18:27 -11.3 °C -14.7 °C 33822.8 hPa SW 28.5 km/h 28.5 km/h 66 % 0 mm 14.0 W/m2 BKN
18:32 -11.3 °C -14.6 °C 33832.9 hPa SSW 35.7 km/h 35.7 km/h 67 % 0 mm 7.0 W/m2 BKN
18:37 -11.3 °C -14.5 °C 33822.8 hPa SSW 23.8 km/h 23.8 km/h 68 % 0 mm 5.0 W/m2 OVC
18:42 -11.3 °C -14.5 °C 33822.8 hPa SSW 9 km/h 9 km/h 68 % 0 mm 0.0 W/m2 OVC
18:47 -11.6 °C -14.7 °C 33822.8 hPa SSE 15 km/h 15 km/h 69 % 0 mm 0.0 W/m2 OVC
18:52 -11.6 °C -14.7 °C 33832.9 hPa SSW 6 km/h 6 km/h 69 % 0 mm 0.0 W/m2 OVC
18:57 -11.6 °C -14.7 °C 33832.9 hPa South 17.9 km/h 17.9 km/h 69 % 0 mm 0.0 W/m2 OVC
19:02 -11.9 °C -14.8 °C 33832.9 hPa South 9 km/h 9 km/h 70 % 0 mm 0.0 W/m2 CLR
19:07 -11.9 °C -14.8 °C 33832.9 hPa South 20.9 km/h 20.9 km/h 70 % 0 mm 0.0 W/m2 CLR
19:12 -11.9 °C -14.7 °C 33832.9 hPa South 10.3 km/h 10.3 km/h 71 % 0 mm 0.0 W/m2 CLR
19:17 -11.9 °C -14.7 °C 33832.9 hPa South 10.3 km/h 10.3 km/h 71 % 0 mm 0.0 W/m2 CLR
19:22 -11.9 °C -14.7 °C 33832.9 hPa SSW 17.9 km/h 17.9 km/h 71 % 0 mm 0.0 W/m2 CLR
19:27 -11.9 °C -14.7 °C 33843.1 hPa South 23.8 km/h 23.8 km/h 71 % 0 mm 0.0 W/m2 CLR
19:32 -11.9 °C -14.7 °C 33843.1 hPa SSW 9 km/h 9 km/h 71 % 0 mm 0.0 W/m2 CLR
19:37 -11.9 °C -14.6 °C 33843.1 hPa South 11.9 km/h 11.9 km/h 72 % 0 mm 0.0 W/m2 CLR
19:42 -11.6 °C -14.4 °C 33843.1 hPa Calm     71 % 0 mm 0.0 W/m2 CLR
19:47 -11.6 °C -14.3 °C 33843.1 hPa Calm     72 % 0 mm 0.0 W/m2 CLR
19:52 -11.9 °C -14.7 °C 33843.1 hPa Calm     71 % 0 mm 0.0 W/m2 CLR
19:57 -11.9 °C -14.6 °C 33843.1 hPa Calm     72 % 0 mm 0.0 W/m2 CLR
20:02 -11.9 °C -14.6 °C 33843.1 hPa Calm     72 % 0 mm 0.0 W/m2 CLR
20:07 -11.9 °C -14.6 °C 33843.1 hPa Calm     72 % 0 mm 0.0 W/m2 CLR
20:12 -12.2 °C -14.8 °C 33843.1 hPa Calm     73 % 0 mm 0.0 W/m2 CLR
20:17 -12.2 °C -14.8 °C 33856.6 hPa Calm     73 % 0 mm 0.0 W/m2 CLR
20:22 -12.6 °C -15.1 °C 33843.1 hPa Calm     73 % 0 mm 0.0 W/m2 CLR
20:27 -12.6 °C -14.9 °C 33843.1 hPa Calm     74 % 0 mm 0.0 W/m2 CLR
20:32 -12.6 °C -14.9 °C 33843.1 hPa Calm     75 % 0 mm 0.0 W/m2 CLR
20:37 -12.6 °C -14.9 °C 33832.9 hPa Calm     75 % 0 mm 0.0 W/m2 CLR
20:42 -12.8 °C -15.1 °C 33832.9 hPa Calm     76 % 0 mm 0.0 W/m2 CLR
20:47 -12.8 °C -15.1 °C 33822.8 hPa Calm     76 % 0 mm 0.0 W/m2 CLR
20:52 -12.8 °C -14.8 °C 33822.8 hPa Calm     78 % 0 mm 0.0 W/m2 CLR
20:57 -13.2 °C -15.2 °C 33822.8 hPa Calm     78 % 0 mm 0.0 W/m2 CLR
21:02 -13.2 °C -15.2 °C 33809.2 hPa Calm     78 % 0 mm 0.0 W/m2 CLR
21:07 -13.4 °C -15.3 °C 33809.2 hPa Calm     79 % 0 mm 0.0 W/m2 CLR
21:12 -13.8 °C -15.7 °C 33809.2 hPa Calm     79 % 0 mm 0.0 W/m2 CLR
21:17 -13.8 °C -15.6 °C 33809.2 hPa Calm     80 % 0 mm 0.0 W/m2 CLR
21:22 -14.1 °C -15.9 °C 33809.2 hPa Calm     80 % 0 mm 0.0 W/m2 CLR
21:27 -14.1 °C -15.9 °C 33809.2 hPa Calm     80 % 0 mm 0.0 W/m2 CLR
21:32 -14.1 °C -15.9 °C 33822.8 hPa Calm     80 % 0 mm 0.0 W/m2 CLR
21:37 -14.4 °C -16.3 °C 33822.8 hPa Calm     79 % 0 mm 0.0 W/m2 CLR
21:42 -14.4 °C -16.3 °C 33809.2 hPa Calm     79 % 0 mm 0.0 W/m2 CLR
21:47 -14.4 °C -16.2 °C 33809.2 hPa Calm     80 % 0 mm 0.0 W/m2 CLR
21:52 -14.7 °C -16.3 °C 33809.2 hPa Calm     81 % 0 mm 0.0 W/m2 CLR
21:57 -14.4 °C -15.9 °C 33809.2 hPa Calm     82 % 0 mm 0.0 W/m2 CLR
22:02 -14.4 °C -15.9 °C 33809.2 hPa Calm     83 % 0 mm 0.0 W/m2 CLR
22:07 -14.7 °C -16.2 °C 33822.8 hPa Calm     83 % 0 mm 0.0 W/m2 CLR
22:12 -14.7 °C -16.2 °C 33809.2 hPa Calm     83 % 0 mm 0.0 W/m2 CLR
22:17 -14.7 °C -16.2 °C 33809.2 hPa Calm     83 % 0 mm 0.0 W/m2 CLR
22:23 -14.7 °C -16.2 °C 33809.2 hPa Calm     83 % 0 mm 0.0 W/m2 CLR
22:28 -14.7 °C -16.2 °C 33799.1 hPa Calm     83 % 0 mm 0.0 W/m2 CLR
22:33 -14.7 °C -16.1 °C 33799.1 hPa Calm     84 % 0 mm 0.0 W/m2 CLR
22:38 -15 °C -16.3 °C 33799.1 hPa Calm     85 % 0 mm 0.0 W/m2 CLR
22:43 -15 °C -16.3 °C 33799.1 hPa Calm     85 % 0 mm 0.0 W/m2 CLR
22:48 -15 °C -16.3 °C 33799.1 hPa Calm     85 % 0 mm 0.0 W/m2 CLR
22:53 -14.7 °C -15.9 °C 33799.1 hPa Calm     86 % 0 mm 0.0 W/m2 CLR
22:58 -14.7 °C -15.9 °C 33799.1 hPa Calm     86 % 0 mm 0.0 W/m2 CLR
23:03 -14.7 °C -15.9 °C 33799.1 hPa Calm     86 % 0 mm 0.0 W/m2 CLR
23:08 -14.4 °C -15.7 °C 33809.2 hPa Calm     85 % 0 mm 0.0 W/m2 CLR
23:13 -14.4 °C -15.7 °C 33799.1 hPa Calm     85 % 0 mm 0.0 W/m2 CLR
23:18 -14.4 °C -15.6 °C 33799.1 hPa Calm     86 % 0 mm 0.0 W/m2 CLR
23:23 -14.4 °C -15.6 °C 33809.2 hPa Calm     86 % 0 mm 0.0 W/m2 CLR
23:28 -14.1 °C -15.4 °C 33809.2 hPa Calm     85 % 0 mm 0.0 W/m2 CLR
23:33 -14.1 °C -15.4 °C 33822.8 hPa Calm     85 % 0 mm 0.0 W/m2 CLR
23:38 -14.1 °C -15.4 °C 33822.8 hPa Calm     85 % 0 mm 0.0 W/m2 CLR
23:43 -14.1 °C -15.4 °C 33832.9 hPa Calm     85 % 7.62 mm 0.0 W/m2 RA
23:48 -14.1 °C -15.4 °C 33832.9 hPa Calm     85 % 12.7 mm 0.0 W/m2 RA
23:53 -13.8 °C -15.1 °C 33832.9 hPa Calm     85 % 20.32 mm 0.0 W/m2 RA
23:58 -14.1 °C -15.3 °C 33832.9 hPa Calm     86 % 33.02 mm 0.0 W/m2 RA
Lo Temps de Massalio
Compliments of Weather Underground - 1.25 mb